createdAt,value
2022-07-29T00:00:46.864Z,1013.63
2022-07-29T00:01:46.852Z,1013.65
2022-07-29T00:02:46.879Z,1013.67
2022-07-29T00:03:46.908Z,1013.64
2022-07-29T00:04:46.812Z,1013.62
2022-07-29T00:05:46.803Z,1013.64
2022-07-29T00:06:46.786Z,1013.60
2022-07-29T00:07:46.774Z,1013.67
2022-07-29T00:08:46.756Z,1013.64
2022-07-29T00:09:52.034Z,1013.62
2022-07-29T00:10:47.777Z,1013.65
2022-07-29T00:11:46.717Z,1013.71
2022-07-29T00:12:46.716Z,1013.66
2022-07-29T00:13:50.854Z,1013.68
2022-07-29T00:14:46.682Z,1013.66
2022-07-29T00:15:46.672Z,1013.62
2022-07-29T00:16:46.702Z,1013.62
2022-07-29T00:17:46.636Z,1013.65
2022-07-29T00:18:46.615Z,1013.64
2022-07-29T00:19:46.605Z,1013.64
2022-07-29T00:20:46.596Z,1013.62
2022-07-29T00:21:46.608Z,1013.61
2022-07-29T00:22:46.581Z,1013.61
2022-07-29T00:23:46.570Z,1013.62
2022-07-29T00:24:46.555Z,1013.60
2022-07-29T00:25:46.538Z,1013.59
2022-07-29T00:26:46.542Z,1013.64
2022-07-29T00:27:46.540Z,1013.64
2022-07-29T00:28:46.496Z,1013.62
2022-07-29T00:29:46.475Z,1013.58
2022-07-29T00:30:46.466Z,1013.62
2022-07-29T00:31:46.515Z,1013.61
2022-07-29T00:32:46.466Z,1013.59
2022-07-29T00:33:46.436Z,1013.59
2022-07-29T00:34:46.438Z,1013.58
2022-07-29T00:35:46.396Z,1013.53
2022-07-29T00:36:46.388Z,1013.50
2022-07-29T00:37:46.388Z,1013.47
2022-07-29T00:38:46.380Z,1013.49
2022-07-29T00:39:46.358Z,1013.52
2022-07-29T00:40:46.352Z,1013.53
2022-07-29T00:41:46.339Z,1013.56
2022-07-29T00:42:46.358Z,1013.55
2022-07-29T00:43:46.310Z,1013.55
2022-07-29T00:44:46.314Z,1013.57
2022-07-29T00:45:46.288Z,1013.53
2022-07-29T00:46:46.299Z,1013.51
2022-07-29T00:47:46.248Z,1013.52
2022-07-29T00:48:46.325Z,1013.52
2022-07-29T00:49:46.228Z,1013.58
2022-07-29T00:50:46.259Z,1013.62
2022-07-29T00:51:46.210Z,1013.55
2022-07-29T00:52:46.191Z,1013.59
2022-07-29T00:53:46.169Z,1013.54
2022-07-29T00:54:46.150Z,1013.57
2022-07-29T00:55:46.154Z,1013.57
2022-07-29T00:56:46.138Z,1013.57
2022-07-29T00:57:46.161Z,1013.53
2022-07-29T00:58:46.090Z,1013.55
2022-07-29T00:59:46.078Z,1013.55
2022-07-29T01:00:46.251Z,1013.57
2022-07-29T01:01:46.124Z,1013.60
2022-07-29T01:02:46.082Z,1013.58
2022-07-29T01:03:46.051Z,1013.55
2022-07-29T01:04:46.031Z,1013.54
2022-07-29T01:05:49.940Z,1013.54
2022-07-29T01:06:47.025Z,1013.48
2022-07-29T01:07:45.994Z,1013.45
2022-07-29T01:08:45.964Z,1013.49
2022-07-29T01:09:47.235Z,1013.48
2022-07-29T01:10:45.931Z,1013.46
2022-07-29T01:11:45.939Z,1013.42
2022-07-29T01:12:45.910Z,1013.45
2022-07-29T01:13:45.950Z,1013.43
2022-07-29T01:14:52.978Z,1013.41
2022-07-29T01:15:49.002Z,1013.38
2022-07-29T01:16:45.949Z,1013.37
2022-07-29T01:17:52.706Z,1013.35
2022-07-29T01:18:46.904Z,1013.36
2022-07-29T01:19:45.854Z,1013.35
2022-07-29T01:20:45.848Z,1013.36
2022-07-29T01:21:45.820Z,1013.40
2022-07-29T01:22:45.818Z,1013.32
2022-07-29T01:23:45.796Z,1013.33
2022-07-29T01:24:45.777Z,1013.38
2022-07-29T01:25:45.770Z,1013.31
2022-07-29T01:26:45.762Z,1013.26
2022-07-29T01:27:45.737Z,1013.30
2022-07-29T01:28:45.717Z,1013.31
2022-07-29T01:29:45.715Z,1013.27
2022-07-29T01:30:45.700Z,1013.25
2022-07-29T01:31:59.384Z,1013.21
2022-07-29T01:34:32.809Z,1013.21
2022-07-29T01:34:57.739Z,1013.17
2022-07-29T01:35:57.752Z,1013.15
2022-07-29T01:36:57.717Z,1013.15
2022-07-29T01:37:57.719Z,1013.09
2022-07-29T01:38:57.700Z,1013.07
2022-07-29T01:39:57.689Z,1013.13
2022-07-29T01:40:57.678Z,1013.06
2022-07-29T01:41:57.661Z,1013.03
2022-07-29T01:42:57.662Z,1013.03
2022-07-29T01:43:57.642Z,1013.01
2022-07-29T01:44:57.642Z,1012.98
2022-07-29T01:45:57.621Z,1012.96
2022-07-29T01:46:57.620Z,1012.92
2022-07-29T01:47:57.580Z,1012.93
2022-07-29T01:48:57.606Z,1012.84
2022-07-29T01:49:57.554Z,1012.88
2022-07-29T01:50:57.580Z,1012.85
2022-07-29T01:51:57.520Z,1012.81
2022-07-29T01:52:57.509Z,1012.75
2022-07-29T01:53:57.499Z,1012.75
2022-07-29T01:54:57.482Z,1012.76
2022-07-29T01:55:57.470Z,1012.71
2022-07-29T01:56:57.512Z,1012.73
2022-07-29T01:57:57.454Z,1012.64
2022-07-29T01:58:57.432Z,1012.63
2022-07-29T01:59:57.422Z,1012.64
2022-07-29T02:00:57.401Z,1012.63
2022-07-29T02:01:57.427Z,1012.63
2022-07-29T02:02:57.391Z,1012.59
2022-07-29T02:03:57.361Z,1012.62
2022-07-29T02:04:57.393Z,1012.63
2022-07-29T02:05:57.344Z,1012.63
2022-07-29T02:06:57.335Z,1012.61
2022-07-29T02:07:57.354Z,1012.62
2022-07-29T02:08:57.323Z,1012.63
2022-07-29T02:09:57.294Z,1012.61
2022-07-29T02:10:57.293Z,1012.57
2022-07-29T02:11:57.292Z,1012.54
2022-07-29T02:12:57.250Z,1012.56
2022-07-29T02:13:57.250Z,1012.55
2022-07-29T02:14:57.224Z,1012.52
2022-07-29T02:15:57.414Z,1012.56
2022-07-29T02:16:57.212Z,1012.51
2022-07-29T02:17:57.187Z,1012.51
2022-07-29T02:18:57.202Z,1012.53
2022-07-29T02:19:57.152Z,1012.54
2022-07-29T02:20:57.186Z,1012.54
2022-07-29T02:21:57.144Z,1012.53
2022-07-29T02:22:57.144Z,1012.56
2022-07-29T02:23:57.116Z,1012.55
2022-07-29T02:24:57.107Z,1012.55
2022-07-29T02:25:57.086Z,1012.56
2022-07-29T02:26:57.075Z,1012.58
2022-07-29T02:27:57.055Z,1012.64
2022-07-29T02:28:57.054Z,1012.63
2022-07-29T02:29:57.023Z,1012.65
2022-07-29T02:30:57.059Z,1012.64
2022-07-29T02:31:57.053Z,1012.66
2022-07-29T02:32:57.005Z,1012.64
2022-07-29T02:33:57.001Z,1012.62
2022-07-29T02:34:56.993Z,1012.60
2022-07-29T02:35:56.941Z,1012.66
2022-07-29T02:36:56.942Z,1012.68
2022-07-29T02:37:56.934Z,1012.68
2022-07-29T02:38:56.937Z,1012.65
2022-07-29T02:39:56.895Z,1012.71
2022-07-29T02:40:56.898Z,1012.69
2022-07-29T02:41:56.879Z,1012.74
2022-07-29T02:42:56.900Z,1012.78
2022-07-29T02:43:56.845Z,1012.77
2022-07-29T02:44:56.834Z,1012.76
2022-07-29T02:45:56.942Z,1012.78
2022-07-29T02:46:56.891Z,1012.78
2022-07-29T02:47:56.785Z,1012.77
2022-07-29T02:48:56.822Z,1012.76
2022-07-29T02:49:56.790Z,1012.72
2022-07-29T02:50:56.780Z,1012.74
2022-07-29T02:51:56.764Z,1012.74
2022-07-29T02:52:56.734Z,1012.75
2022-07-29T02:53:56.716Z,1012.78
2022-07-29T02:54:56.707Z,1012.73
2022-07-29T02:55:56.687Z,1012.71
2022-07-29T02:56:56.684Z,1012.71
2022-07-29T02:57:56.678Z,1012.72
2022-07-29T02:58:56.654Z,1012.67
2022-07-29T02:59:56.656Z,1012.70
2022-07-29T03:00:56.616Z,1012.71
2022-07-29T03:01:56.659Z,1012.72
2022-07-29T03:02:56.598Z,1012.70
2022-07-29T03:03:56.604Z,1012.70
2022-07-29T03:04:56.741Z,1012.71
2022-07-29T03:05:56.576Z,1012.73
2022-07-29T03:06:56.567Z,1012.75
2022-07-29T03:07:56.564Z,1012.71
2022-07-29T03:08:56.513Z,1012.74
2022-07-29T03:09:56.501Z,1012.70
2022-07-29T03:10:56.486Z,1012.68
2022-07-29T03:11:56.494Z,1012.68
2022-07-29T03:12:56.478Z,1012.69
2022-07-29T03:13:56.446Z,1012.60
2022-07-29T03:14:56.454Z,1012.66
2022-07-29T03:15:56.518Z,1012.61
2022-07-29T03:16:56.501Z,1012.64
2022-07-29T03:17:56.468Z,1012.64
2022-07-29T03:18:56.398Z,1012.66
2022-07-29T03:19:56.380Z,1012.68
2022-07-29T03:20:56.368Z,1012.66
2022-07-29T03:21:56.357Z,1012.66
2022-07-29T03:22:56.351Z,1012.65
2022-07-29T03:23:56.341Z,1012.65
2022-07-29T03:24:56.311Z,1012.60
2022-07-29T03:25:56.306Z,1012.66
2022-07-29T03:26:56.285Z,1012.65
2022-07-29T03:27:56.258Z,1012.61
2022-07-29T03:28:56.280Z,1012.62
2022-07-29T03:29:56.309Z,1012.65
2022-07-29T03:30:56.266Z,1012.60
2022-07-29T03:31:56.209Z,1012.55
2022-07-29T03:32:56.642Z,1012.58
2022-07-29T03:33:56.201Z,1012.52
2022-07-29T03:34:56.201Z,1012.53
2022-07-29T03:35:56.202Z,1012.47
2022-07-29T03:36:56.204Z,1012.50
2022-07-29T03:37:56.140Z,1012.46
2022-07-29T03:38:56.144Z,1012.45
2022-07-29T03:39:56.110Z,1012.46
2022-07-29T03:40:56.116Z,1012.47
2022-07-29T03:41:56.083Z,1012.49
2022-07-29T03:42:56.089Z,1012.46
2022-07-29T03:43:56.062Z,1012.50
2022-07-29T03:44:56.136Z,1012.45
2022-07-29T03:45:56.069Z,1012.46
2022-07-29T03:46:56.039Z,1012.48
2022-07-29T03:48:00.683Z,1012.46
2022-07-29T03:48:57.025Z,1012.54
2022-07-29T03:49:55.982Z,1012.51
2022-07-29T03:50:55.973Z,1012.52
2022-07-29T03:51:56.102Z,1012.51
2022-07-29T03:52:55.950Z,1012.49
2022-07-29T03:53:55.938Z,1012.48
2022-07-29T03:54:55.921Z,1012.46
2022-07-29T03:55:55.909Z,1012.43
2022-07-29T03:56:55.900Z,1012.45
2022-07-29T03:57:55.891Z,1012.44
2022-07-29T03:58:55.869Z,1012.42
2022-07-29T03:59:55.862Z,1012.42
2022-07-29T04:00:55.872Z,1012.48
2022-07-29T04:01:55.896Z,1012.46
2022-07-29T04:02:55.831Z,1012.47
2022-07-29T04:03:55.842Z,1012.45
2022-07-29T04:04:55.783Z,1012.49
2022-07-29T04:05:55.781Z,1012.39
2022-07-29T04:06:55.764Z,1012.43
2022-07-29T04:07:55.743Z,1012.44
2022-07-29T04:08:55.732Z,1012.44
2022-07-29T04:09:55.752Z,1012.45
2022-07-29T04:10:55.763Z,1012.46
2022-07-29T04:12:02.556Z,1012.47
2022-07-29T04:12:56.670Z,1012.52
2022-07-29T04:13:55.652Z,1012.47
2022-07-29T04:14:55.663Z,1012.44
2022-07-29T04:15:55.693Z,1012.51
2022-07-29T04:16:55.632Z,1012.49
2022-07-29T04:17:55.613Z,1012.44
2022-07-29T04:18:55.593Z,1012.43
2022-07-29T04:19:55.605Z,1012.46
2022-07-29T04:20:55.576Z,1012.46
2022-07-29T04:21:55.574Z,1012.50
2022-07-29T04:22:55.595Z,1012.57
2022-07-29T04:23:55.544Z,1012.56
2022-07-29T04:24:57.992Z,1012.51
2022-07-29T04:25:55.527Z,1012.56
2022-07-29T04:26:55.505Z,1012.55
2022-07-29T04:27:55.496Z,1012.59
2022-07-29T04:28:55.498Z,1012.59
2022-07-29T04:29:57.419Z,1012.61
2022-07-29T04:30:55.456Z,1012.56
2022-07-29T04:31:55.455Z,1012.59
2022-07-29T04:32:55.515Z,1012.61
2022-07-29T04:33:55.494Z,1012.58
2022-07-29T04:34:55.382Z,1012.56
2022-07-29T04:35:55.374Z,1012.62
2022-07-29T04:36:55.384Z,1012.62
2022-07-29T04:37:55.346Z,1012.58
2022-07-29T04:38:55.393Z,1012.64
2022-07-29T04:39:55.337Z,1012.59
2022-07-29T04:40:55.397Z,1012.59
2022-07-29T04:41:56.479Z,1012.56
2022-07-29T04:42:55.278Z,1012.57
2022-07-29T04:43:55.286Z,1012.56
2022-07-29T04:44:55.272Z,1012.55
2022-07-29T04:45:55.284Z,1012.58
2022-07-29T04:46:55.236Z,1012.57
2022-07-29T04:47:55.223Z,1012.60
2022-07-29T04:48:55.289Z,1012.60
2022-07-29T04:49:55.194Z,1012.60
2022-07-29T04:50:55.171Z,1012.62
2022-07-29T04:51:55.180Z,1012.61
2022-07-29T04:52:55.147Z,1012.57
2022-07-29T04:53:55.137Z,1012.63
2022-07-29T04:54:55.188Z,1012.60
2022-07-29T04:55:55.126Z,1012.62
2022-07-29T04:56:55.102Z,1012.64
2022-07-29T04:57:55.088Z,1012.62
2022-07-29T04:58:55.087Z,1012.61
2022-07-29T04:59:55.058Z,1012.63
2022-07-29T05:00:55.040Z,1012.61
2022-07-29T05:01:55.118Z,1012.62
2022-07-29T05:02:55.088Z,1012.64
2022-07-29T05:04:00.156Z,1012.59
2022-07-29T05:04:55.998Z,1012.61
2022-07-29T05:05:54.982Z,1012.65
2022-07-29T05:06:54.970Z,1012.63
2022-07-29T05:07:54.972Z,1012.64
2022-07-29T05:08:54.939Z,1012.64
2022-07-29T05:09:54.959Z,1012.69
2022-07-29T05:10:54.919Z,1012.63
2022-07-29T05:11:54.901Z,1012.68
2022-07-29T05:12:54.890Z,1012.67
2022-07-29T05:13:54.893Z,1012.62
2022-07-29T05:14:54.867Z,1012.62
2022-07-29T05:15:56.883Z,1012.60
2022-07-29T05:16:54.853Z,1012.64
2022-07-29T05:17:54.832Z,1012.65
2022-07-29T05:18:54.820Z,1012.68
2022-07-29T05:19:54.850Z,1012.68
2022-07-29T05:20:54.790Z,1012.65
2022-07-29T05:21:54.782Z,1012.63
2022-07-29T05:22:54.784Z,1012.63
2022-07-29T05:23:54.761Z,1012.61
2022-07-29T05:24:54.732Z,1012.58
2022-07-29T05:25:54.769Z,1012.59
2022-07-29T05:26:54.701Z,1012.58
2022-07-29T05:27:54.699Z,1012.60
2022-07-29T05:28:54.700Z,1012.59
2022-07-29T05:29:54.669Z,1012.58
2022-07-29T05:30:54.734Z,1012.56
2022-07-29T05:31:54.640Z,1012.49
2022-07-29T05:32:54.666Z,1012.43
2022-07-29T05:33:54.630Z,1012.46
2022-07-29T05:34:54.613Z,1012.44
2022-07-29T05:35:59.930Z,1012.46
2022-07-29T05:36:55.583Z,1012.43
2022-07-29T05:37:54.569Z,1012.46
2022-07-29T05:38:54.553Z,1012.46
2022-07-29T05:39:56.705Z,1012.48
2022-07-29T05:40:54.541Z,1012.49
2022-07-29T05:41:54.561Z,1012.45
2022-07-29T05:42:54.513Z,1012.51
2022-07-29T05:43:54.483Z,1012.48
2022-07-29T05:44:54.480Z,1012.49
2022-07-29T05:45:54.489Z,1012.46
2022-07-29T05:46:54.451Z,1012.44
2022-07-29T05:47:54.432Z,1012.45
2022-07-29T05:48:54.459Z,1012.42
2022-07-29T05:49:54.415Z,1012.43
2022-07-29T05:50:54.393Z,1012.45
2022-07-29T05:51:54.385Z,1012.47
2022-07-29T05:52:54.384Z,1012.48
2022-07-29T05:53:54.385Z,1012.49
2022-07-29T05:54:54.344Z,1012.48
2022-07-29T05:55:54.338Z,1012.49
2022-07-29T05:56:54.314Z,1012.54
2022-07-29T05:57:54.383Z,1012.48
2022-07-29T05:58:54.284Z,1012.42
2022-07-29T05:59:54.363Z,1012.46
2022-07-29T06:00:54.256Z,1012.41
2022-07-29T06:01:54.286Z,1012.45
2022-07-29T06:02:54.235Z,1012.49
2022-07-29T06:03:54.263Z,1012.42
2022-07-29T06:04:54.269Z,1012.39
2022-07-29T06:05:54.214Z,1012.47
2022-07-29T06:06:54.177Z,1012.42
2022-07-29T06:07:54.175Z,1012.44
2022-07-29T06:08:54.165Z,1012.42
2022-07-29T06:09:54.146Z,1012.48
2022-07-29T06:10:54.146Z,1012.51
2022-07-29T06:11:54.135Z,1012.52
2022-07-29T06:12:54.104Z,1012.59
2022-07-29T06:13:54.093Z,1012.55
2022-07-29T06:14:54.389Z,1012.58
2022-07-29T06:15:54.117Z,1012.62
2022-07-29T06:16:54.060Z,1012.63
2022-07-29T06:18:00.496Z,1012.60
2022-07-29T06:18:55.047Z,1012.58
2022-07-29T06:19:54.029Z,1012.60
2022-07-29T06:20:54.008Z,1012.58
2022-07-29T06:21:53.997Z,1012.60
2022-07-29T06:22:53.979Z,1012.61
2022-07-29T06:23:53.958Z,1012.60
2022-07-29T06:24:53.951Z,1012.55
2022-07-29T06:25:53.987Z,1012.54
2022-07-29T06:26:53.926Z,1012.55
2022-07-29T06:27:53.909Z,1012.56
2022-07-29T06:28:53.908Z,1012.54
2022-07-29T06:29:53.947Z,1012.54
2022-07-29T06:30:53.918Z,1012.49
2022-07-29T06:31:53.868Z,1012.49
2022-07-29T06:32:53.842Z,1012.52
2022-07-29T06:33:54.608Z,1012.53
2022-07-29T06:35:02.725Z,1012.52
2022-07-29T06:35:55.262Z,1012.53
2022-07-29T06:36:53.829Z,1012.42
2022-07-29T06:37:55.294Z,1012.49
2022-07-29T06:38:54.758Z,1012.49
2022-07-29T06:39:57.903Z,1012.47
2022-07-29T06:40:54.739Z,1012.49
2022-07-29T06:41:53.798Z,1012.54
2022-07-29T06:42:53.713Z,1012.52
2022-07-29T06:43:54.471Z,1012.49
2022-07-29T06:44:53.691Z,1012.50
2022-07-29T06:45:53.724Z,1012.45
2022-07-29T06:46:53.671Z,1012.40
2022-07-29T06:47:53.673Z,1012.45
2022-07-29T06:48:53.791Z,1012.37
2022-07-29T06:49:53.704Z,1012.39
2022-07-29T06:50:53.618Z,1012.40
2022-07-29T06:51:53.602Z,1012.36
2022-07-29T06:52:53.594Z,1012.36
2022-07-29T06:54:00.331Z,1012.39
2022-07-29T06:54:54.560Z,1012.43
2022-07-29T06:55:53.550Z,1012.39
2022-07-29T06:56:53.521Z,1012.44
2022-07-29T06:57:53.511Z,1012.47
2022-07-29T06:58:53.493Z,1012.45
2022-07-29T06:59:53.509Z,1012.45
2022-07-29T07:00:53.534Z,1012.45
2022-07-29T07:01:53.476Z,1012.47
2022-07-29T07:02:53.493Z,1012.44
2022-07-29T07:03:53.444Z,1012.45
2022-07-29T07:04:53.467Z,1012.47
2022-07-29T07:05:53.424Z,1012.45
2022-07-29T07:06:53.414Z,1012.44
2022-07-29T07:07:53.392Z,1012.47
2022-07-29T07:08:53.371Z,1012.48
2022-07-29T07:09:53.362Z,1012.44
2022-07-29T07:10:53.374Z,1012.51
2022-07-29T07:11:53.334Z,1012.51
2022-07-29T07:12:53.314Z,1012.54
2022-07-29T07:13:53.304Z,1012.52
2022-07-29T07:15:00.336Z,1012.53
2022-07-29T07:15:53.288Z,1012.52
2022-07-29T07:16:53.336Z,1012.56
2022-07-29T07:17:53.396Z,1012.54
2022-07-29T07:18:53.257Z,1012.54
2022-07-29T07:19:53.228Z,1012.57
2022-07-29T07:20:53.238Z,1012.53
2022-07-29T07:21:53.217Z,1012.54
2022-07-29T07:22:53.210Z,1012.53
2022-07-29T07:23:53.180Z,1012.54
2022-07-29T07:24:53.169Z,1012.51
2022-07-29T07:25:53.169Z,1012.49
2022-07-29T07:26:53.140Z,1012.49
2022-07-29T07:27:53.162Z,1012.51
2022-07-29T07:28:53.120Z,1012.50
2022-07-29T07:29:53.109Z,1012.56
2022-07-29T07:30:53.141Z,1012.52
2022-07-29T07:31:57.509Z,1012.54
2022-07-29T07:32:54.105Z,1012.53
2022-07-29T07:33:53.060Z,1012.53
2022-07-29T07:34:53.049Z,1012.56
2022-07-29T07:35:53.041Z,1012.59
2022-07-29T07:36:53.010Z,1012.56
2022-07-29T07:37:53.022Z,1012.56
2022-07-29T07:38:53.035Z,1012.58
2022-07-29T07:39:52.972Z,1012.56
2022-07-29T07:40:52.959Z,1012.58
2022-07-29T07:41:52.950Z,1012.57
2022-07-29T07:42:52.936Z,1012.55
2022-07-29T07:43:52.932Z,1012.51
2022-07-29T07:45:12.681Z,1012.53
2022-07-29T07:45:53.976Z,1012.51
2022-07-29T07:46:52.953Z,1012.53
2022-07-29T07:47:52.882Z,1012.57
2022-07-29T07:48:52.924Z,1012.58
2022-07-29T07:49:52.858Z,1012.58
2022-07-29T07:50:52.823Z,1012.57
2022-07-29T07:51:52.802Z,1012.59
2022-07-29T07:52:52.796Z,1012.58
2022-07-29T07:53:52.801Z,1012.57
2022-07-29T07:54:52.773Z,1012.58
2022-07-29T07:56:09.916Z,1012.54
2022-07-29T07:56:53.747Z,1012.55
2022-07-29T07:57:52.774Z,1012.56
2022-07-29T07:58:52.714Z,1012.54
2022-07-29T07:59:52.727Z,1012.51
2022-07-29T08:00:52.758Z,1012.52
2022-07-29T08:01:56.201Z,1012.56
2022-07-29T08:02:52.699Z,1012.54
2022-07-29T08:03:52.644Z,1012.54
2022-07-29T08:04:52.626Z,1012.53
2022-07-29T08:05:52.663Z,1012.54
2022-07-29T08:06:52.634Z,1012.53
2022-07-29T08:07:52.586Z,1012.53
2022-07-29T08:08:56.223Z,1012.49
2022-07-29T08:09:52.555Z,1012.50
2022-07-29T08:10:52.579Z,1012.54
2022-07-29T08:11:52.578Z,1012.50
2022-07-29T08:12:52.545Z,1012.53
2022-07-29T08:13:52.518Z,1012.55
2022-07-29T08:14:52.532Z,1012.53
2022-07-29T08:15:52.507Z,1012.52
2022-07-29T08:16:52.650Z,1012.50
2022-07-29T08:17:52.488Z,1012.52
2022-07-29T08:18:52.466Z,1012.50
2022-07-29T08:19:52.436Z,1012.46
2022-07-29T08:20:52.427Z,1012.38
2022-07-29T08:21:52.691Z,1012.41
2022-07-29T08:22:52.388Z,1012.39
2022-07-29T08:23:58.748Z,1012.37
2022-07-29T08:24:53.401Z,1012.37
2022-07-29T08:25:52.433Z,1012.39
2022-07-29T08:26:52.360Z,1012.40
2022-07-29T08:27:52.340Z,1012.43
2022-07-29T08:28:52.332Z,1012.40
2022-07-29T08:29:52.320Z,1012.37
2022-07-29T08:30:52.318Z,1012.36
2022-07-29T08:31:52.602Z,1012.37
2022-07-29T08:32:54.070Z,1012.28
2022-07-29T08:33:52.269Z,1012.29
2022-07-29T08:34:52.312Z,1012.35
2022-07-29T08:35:52.231Z,1012.41
2022-07-29T08:36:52.219Z,1012.40
2022-07-29T08:37:52.200Z,1012.37
2022-07-29T08:38:52.211Z,1012.37
2022-07-29T08:39:52.181Z,1012.34
2022-07-29T08:40:52.172Z,1012.37
2022-07-29T08:41:53.082Z,1012.38
2022-07-29T08:42:52.144Z,1012.38
2022-07-29T08:43:52.132Z,1012.34
2022-07-29T08:44:52.124Z,1012.31
2022-07-29T08:45:52.186Z,1012.38
2022-07-29T08:46:52.113Z,1012.34
2022-07-29T08:47:52.074Z,1012.38
2022-07-29T08:48:52.132Z,1012.32
2022-07-29T08:49:52.104Z,1012.40
2022-07-29T08:50:52.053Z,1012.35
2022-07-29T08:51:52.032Z,1012.30
2022-07-29T08:52:55.376Z,1012.29
2022-07-29T08:53:53.006Z,1012.25
2022-07-29T08:54:52.004Z,1012.33
2022-07-29T08:55:51.984Z,1012.28
2022-07-29T08:56:51.963Z,1012.28
2022-07-29T08:57:54.382Z,1012.29
2022-07-29T08:58:53.457Z,1012.28
2022-07-29T08:59:51.925Z,1012.32
2022-07-29T09:00:51.950Z,1012.32
2022-07-29T09:01:52.111Z,1012.27
2022-07-29T09:02:51.884Z,1012.23
2022-07-29T09:03:51.915Z,1012.30
2022-07-29T09:04:51.876Z,1012.22
2022-07-29T09:05:51.847Z,1012.27
2022-07-29T09:06:51.843Z,1012.26
2022-07-29T09:07:51.819Z,1012.27
2022-07-29T09:08:51.796Z,1012.24
2022-07-29T09:09:51.808Z,1012.18
2022-07-29T09:10:51.827Z,1012.22
2022-07-29T09:11:52.186Z,1012.23
2022-07-29T09:12:51.749Z,1012.18
2022-07-29T09:13:51.747Z,1012.23
2022-07-29T09:14:51.729Z,1012.22
2022-07-29T09:15:51.722Z,1012.19
2022-07-29T09:17:01.155Z,1012.24
2022-07-29T09:17:52.689Z,1012.26
2022-07-29T09:18:51.678Z,1012.20
2022-07-29T09:19:51.690Z,1012.22
2022-07-29T09:20:51.651Z,1012.20
2022-07-29T09:21:51.671Z,1012.21
2022-07-29T09:22:51.628Z,1012.21
2022-07-29T09:23:51.609Z,1012.09
2022-07-29T09:24:51.600Z,1012.12
2022-07-29T09:25:51.618Z,1012.12
2022-07-29T09:26:51.745Z,1012.09
2022-07-29T09:27:51.574Z,1012.07
2022-07-29T09:28:51.553Z,1012.06
2022-07-29T09:29:51.542Z,1012.11
2022-07-29T09:30:51.521Z,1012.10
2022-07-29T09:31:51.580Z,1012.03
2022-07-29T09:32:51.481Z,1012.04
2022-07-29T09:33:51.480Z,1012.08
2022-07-29T09:34:54.600Z,1012.13
2022-07-29T09:35:56.574Z,1012.09
2022-07-29T09:36:51.484Z,1012.05
2022-07-29T09:37:51.413Z,1012.07
2022-07-29T09:38:51.445Z,1012.08
2022-07-29T09:39:51.421Z,1012.04
2022-07-29T09:40:51.396Z,1011.98
2022-07-29T09:41:51.378Z,1011.98
2022-07-29T09:42:51.373Z,1012.01
2022-07-29T09:43:51.355Z,1012.05
2022-07-29T09:44:51.368Z,1011.98
2022-07-29T09:45:51.347Z,1011.97
2022-07-29T09:46:51.360Z,1012.00
2022-07-29T09:47:51.296Z,1012.00
2022-07-29T09:48:51.359Z,1012.01
2022-07-29T09:49:51.265Z,1011.97
2022-07-29T09:50:51.256Z,1011.96
2022-07-29T09:51:51.235Z,1011.97
2022-07-29T09:52:51.236Z,1011.98
2022-07-29T09:53:51.207Z,1011.96
2022-07-29T09:54:51.210Z,1011.99
2022-07-29T09:55:51.711Z,1011.89
2022-07-29T09:56:51.213Z,1011.95
2022-07-29T09:57:51.169Z,1011.92
2022-07-29T09:58:51.157Z,1011.91
2022-07-29T09:59:51.137Z,1011.85
2022-07-29T10:00:51.221Z,1011.82
2022-07-29T10:01:51.119Z,1011.89
2022-07-29T10:02:51.144Z,1011.86
2022-07-29T10:03:51.172Z,1011.88
2022-07-29T10:04:51.078Z,1011.86
2022-07-29T10:05:51.059Z,1011.85
2022-07-29T10:06:51.068Z,1011.89
2022-07-29T10:07:53.882Z,1011.91
2022-07-29T10:08:51.039Z,1011.86
2022-07-29T10:09:51.008Z,1011.85
2022-07-29T10:10:51.020Z,1011.92
2022-07-29T10:11:51.001Z,1011.91
2022-07-29T10:12:51.011Z,1011.90
2022-07-29T10:13:50.959Z,1011.94
2022-07-29T10:14:50.981Z,1011.86
2022-07-29T10:15:50.971Z,1011.89
2022-07-29T10:16:50.923Z,1011.86
2022-07-29T10:17:50.923Z,1011.85
2022-07-29T10:18:50.892Z,1011.83
2022-07-29T10:19:50.882Z,1011.83
2022-07-29T10:20:50.874Z,1011.86
2022-07-29T10:21:54.990Z,1011.80
2022-07-29T10:22:53.792Z,1011.79
2022-07-29T10:23:50.823Z,1011.79
2022-07-29T10:24:50.822Z,1011.81
2022-07-29T10:25:50.810Z,1011.79
2022-07-29T10:26:50.811Z,1011.85
2022-07-29T10:27:50.774Z,1011.83
2022-07-29T10:28:50.774Z,1011.82
2022-07-29T10:29:50.756Z,1011.85
2022-07-29T10:30:50.743Z,1011.78
2022-07-29T10:31:50.772Z,1011.77
2022-07-29T10:32:54.099Z,1011.74
2022-07-29T10:33:50.705Z,1011.72
2022-07-29T10:34:50.738Z,1011.72
2022-07-29T10:35:50.676Z,1011.73
2022-07-29T10:36:50.677Z,1011.72
2022-07-29T10:37:50.648Z,1011.74
2022-07-29T10:38:50.665Z,1011.71
2022-07-29T10:39:50.624Z,1011.79
2022-07-29T10:40:50.637Z,1011.75
2022-07-29T10:41:50.598Z,1011.76
2022-07-29T10:42:50.626Z,1011.80
2022-07-29T10:43:51.341Z,1011.83
2022-07-29T10:44:50.607Z,1011.78
2022-07-29T10:45:50.547Z,1011.78
2022-07-29T10:46:50.604Z,1011.73
2022-07-29T10:47:50.518Z,1011.71
2022-07-29T10:48:50.541Z,1011.73
2022-07-29T10:49:50.488Z,1011.72
2022-07-29T10:50:50.509Z,1011.68
2022-07-29T10:51:50.521Z,1011.68
2022-07-29T10:52:50.450Z,1011.63
2022-07-29T10:53:50.460Z,1011.74
2022-07-29T10:54:50.440Z,1011.62
2022-07-29T10:55:50.452Z,1011.68
2022-07-29T10:56:50.412Z,1011.62
2022-07-29T10:57:54.672Z,1011.60
2022-07-29T10:58:52.697Z,1011.67
2022-07-29T10:59:50.401Z,1011.63
2022-07-29T11:00:50.437Z,1011.57
2022-07-29T11:01:53.367Z,1011.64
2022-07-29T11:02:50.719Z,1011.66
2022-07-29T11:04:51.330Z,1011.60
2022-07-29T11:05:50.291Z,1011.60
2022-07-29T11:06:50.302Z,1011.62
2022-07-29T11:07:50.274Z,1011.63
2022-07-29T11:08:50.307Z,1011.69
2022-07-29T11:09:50.253Z,1011.68
2022-07-29T11:10:50.392Z,1011.61
2022-07-29T11:11:51.525Z,1011.60
2022-07-29T11:12:50.235Z,1011.58
2022-07-29T11:13:50.204Z,1011.60
2022-07-29T11:14:50.173Z,1011.65
2022-07-29T11:15:50.165Z,1011.63
2022-07-29T11:16:50.186Z,1011.60
2022-07-29T11:17:52.287Z,1011.61
2022-07-29T11:18:50.135Z,1011.57
2022-07-29T11:19:52.305Z,1011.63
2022-07-29T11:20:50.147Z,1011.62
2022-07-29T11:22:05.411Z,1011.56
2022-07-29T11:22:51.126Z,1011.57
2022-07-29T11:23:50.080Z,1011.55
2022-07-29T11:24:50.517Z,1011.53
2022-07-29T11:25:52.443Z,1011.53
2022-07-29T11:26:50.039Z,1011.53
2022-07-29T11:27:50.042Z,1011.49
2022-07-29T11:28:50.045Z,1011.55
2022-07-29T11:29:49.993Z,1011.51
2022-07-29T11:30:49.977Z,1011.53
2022-07-29T11:31:49.970Z,1011.54
2022-07-29T11:32:49.955Z,1011.52
2022-07-29T11:33:56.193Z,1011.59
2022-07-29T11:34:50.988Z,1011.53
2022-07-29T11:36:50.911Z,1011.50
2022-07-29T11:37:52.709Z,1011.54
2022-07-29T11:38:51.352Z,1011.57
2022-07-29T11:39:49.884Z,1011.51
2022-07-29T11:40:49.850Z,1011.51
2022-07-29T11:41:49.839Z,1011.49
2022-07-29T11:42:51.966Z,1011.48
2022-07-29T11:43:50.694Z,1011.48
2022-07-29T11:44:49.811Z,1011.49
2022-07-29T11:45:49.811Z,1011.48
2022-07-29T11:46:50.082Z,1011.49
2022-07-29T11:47:49.793Z,1011.44
2022-07-29T11:48:49.789Z,1011.42
2022-07-29T11:49:49.752Z,1011.40
2022-07-29T11:50:49.784Z,1011.41
2022-07-29T11:51:49.713Z,1011.39
2022-07-29T11:52:50.287Z,1011.37
2022-07-29T11:53:52.491Z,1011.31
2022-07-29T11:54:57.232Z,1011.33
2022-07-29T11:55:52.117Z,1011.36
2022-07-29T11:56:49.644Z,1011.35
2022-07-29T11:58:03.736Z,1011.37
2022-07-29T11:58:50.634Z,1011.31
2022-07-29T11:59:49.616Z,1011.36
2022-07-29T12:00:49.617Z,1011.37
2022-07-29T12:01:49.595Z,1011.41
2022-07-29T12:02:49.578Z,1011.36
2022-07-29T12:03:49.642Z,1011.39
2022-07-29T12:04:49.546Z,1011.34
2022-07-29T12:05:51.866Z,1011.38
2022-07-29T12:06:49.551Z,1011.34
2022-07-29T12:07:49.515Z,1011.34
2022-07-29T12:08:49.510Z,1011.32